• Join FlightAware (Why Join?)
  • Login
  • US Flag 
11:31AM EDT


 

Airport Tracker/Info


-or-


 

Live Flight TrackerFlight Track Log ✈ SWA1718 ✈ 25-Apr-2013 ✈ KDEN - KMDW

Flight Track Log - Related Links

Times and Time Zones

All times are in EDT time to prevent confusion due to time zone crossing. See the SWA1718 flight status page for this flight to view local times or setup timezone preferences in your user account.

Time Position Orientation Groundspeed Altitude Reporting Facility
EDT Latitude Longitude Course Direction KTS MPH feet Rate Location/Type
07:24PM 39.8833 -104.5667 96° East 209 241 7,400  Level Denver TRACON
07:25PM 39.8747 -104.4644 96° East 284 327 9,700 2,280 Climbing Denver Center
07:26PM 39.8742 -104.3444 90° East 317 365 12,200 2,040 Climbing Denver Center
07:27PM 39.8836 -104.2156 85° East 359 413 14,000 1,740 Climbing Denver Center
07:28PM 39.8936 -104.0703 85° East 400 460 15,800 1,980 Climbing Denver Center
07:29PM 39.9067 -103.9011 84° East 435 501 18,200 2,100 Climbing Denver Center
07:30PM 39.9178 -103.7281 85° East 462 532 20,200 1,860 Climbing Denver Center
07:31PM 39.9314 -103.5522 84° East 468 539 22,100 1,680 Climbing Denver Center
07:32PM 39.9425 -103.3747 85° East 486 559 23,700 1,620 Climbing Denver Center
07:33PM 39.9542 -103.1944 85° East 494 568 25,500 1,500 Climbing Denver Center
07:34PM 39.9669 -103.0119 85° East 501 577 26,900 1,380 Climbing Denver Center
07:36PM 39.9778 -102.8269 86° East 505 581 28,400 1,200 Climbing Denver Center
07:37PM 39.9814 -102.6358 89° East 512 589 29,500 1,200 Climbing Denver Center
07:38PM 39.9731 -102.4253 93° East 525 604 30,900 1,260 Climbing Denver Center
07:39PM 39.9694 -102.2478 91° East 515 593 32,200 1,200 Climbing Denver Center
07:40PM 39.9711 -102.0397 89° East 514 592 33,500 960 Climbing Denver Center
07:41PM 39.9833 -101.8628 85° East 513 590 34,300 720 Climbing Denver Center
07:42PM 39.9981 -101.6561 85° East 515 593 35,000 300 Climbing Denver Center
07:43PM 40.0089 -101.4764 85° East 519 597 35,000  Level Denver Center
07:44PM 40.0183 -101.2992 86° East 517 595 35,000  Level Denver Center
07:45PM 40.0292 -101.0908 86° East 517 595 35,000  Level Denver Center
07:46PM 40.0397 -100.9158 85° East 510 587 35,000  Level Denver Center
07:47PM 40.0511 -100.7111 86° East 509 586 35,000  Level Denver Center
07:48PM 40.0600 -100.5372 86° East 507 583 35,000  Level Denver Center
07:49PM 40.0700 -100.3322 86° East 508 585 35,000  Level Denver Center
07:50PM 40.0794 -100.1550 86° East 513 590 35,000  Level Denver Center
07:51PM 40.0889 -99.9450 87° East 519 597 35,000  Level Denver Center
07:52PM 40.0964 -99.7667 87° East 526 605 35,000  Level Denver Center
07:53PM 40.1067 -99.5375 87° East 529 609 35,000  Level Denver Center
07:54PM 40.1150 -99.3450 87° East 532 612 35,000  Level Denver Center
07:55PM 40.1231 -99.1525 87° East 533 613 35,000  Level Denver Center
07:56PM 40.1294 -98.9603 87° East 532 612 35,000  Level Denver Center
07:57PM 40.1372 -98.7678 87° East 533 613 35,000  Level Denver Center
07:58PM 40.1400 -98.6914 87° East 534 615 35,000  Level Minneapolis Center
07:59PM 40.1456 -98.4967 88° East 537 618 35,000  Level Minneapolis Center
08:00PM 40.1522 -98.3025 87° East 538 619 35,000  Level Minneapolis Center
08:01PM 40.1611 -98.0297 87° East 539 620 35,000  Level Minneapolis Center
08:02PM 40.1672 -97.8344 88° East 540 621 35,000  Level Minneapolis Center
08:03PM 40.1947 -97.6436 79° East 535 616 35,000  Level Minneapolis Center
08:04PM 40.2264 -97.4539 78° East 535 616 35,000  Level Minneapolis Center
08:05PM 40.2572 -97.2478 79° East 536 617 35,000  Level Minneapolis Center
08:06PM 40.2858 -97.0578 79° East 534 615 35,000  Level Minneapolis Center
08:07PM 40.3150 -96.8686 79° East 533 613 35,000  Level Minneapolis Center
08:08PM 40.3433 -96.6797 79° East 531 611 35,000  Level Minneapolis Center
08:09PM 40.3708 -96.4897 79° East 533 613 35,000  Level Minneapolis Center
08:10PM 40.3981 -96.3003 79° East 532 612 35,000  Level Minneapolis Center
08:11PM 40.4306 -96.0711 79° East 535 616 35,000  Level Minneapolis Center
08:12PM 40.4575 -95.8781 80° East 539 620 35,000  Level Minneapolis Center
08:13PM 40.4853 -95.6864 79° East 539 620 35,000  Level Minneapolis Center
08:14PM 40.5111 -95.4950 80° East 535 616 35,000  Level Minneapolis Center
08:15PM 40.5428 -95.2642 80° East 536 617 35,000  Level Minneapolis Center
08:16PM 40.5689 -95.0722 80° East 536 617 35,000  Level Minneapolis Center
08:17PM 40.5942 -94.8786 80° East 538 619 35,000  Level Minneapolis Center
08:18PM 40.6197 -94.6853 80° East 538 619 35,000  Level Minneapolis Center
08:19PM 40.6453 -94.4881 80° East 538 619 35,000  Level Minneapolis Center
08:21PM 40.6694 -94.2953 81° East 537 618 35,000  Level Minneapolis Center
08:22PM 40.6906 -94.1033 82° East 537 618 35,000  Level Minneapolis Center
08:23PM 40.7169 -93.9089 80° East 537 618 35,000  Level Minneapolis Center
08:24PM 40.7439 -93.6783 81° East 537 618 35,000  Level Minneapolis Center
08:25PM 40.7661 -93.4858 81° East 535 616 35,000  Level Minneapolis Center
08:26PM 40.7889 -93.2928 81° East 534 615 35,000  Level Minneapolis Center
08:27PM 40.8117 -93.0989 81° East 535 616 35,000  Level Minneapolis Center
08:28PM 40.8339 -92.9064 81° East 533 613 35,000  Level Minneapolis Center
08:28PM 40.8428 -92.8275 82° East 531 611 35,000 -720 Level Chicago Center
08:29PM 40.8681 -92.5942 82° East 534 615 34,000 -1,020 Descending Chicago Center
08:30PM 40.8883 -92.3997 82° East 534 615 33,000 -960 Descending Chicago Center
08:31PM 40.9106 -92.2075 81° East 531 611 32,100 -960 Descending Chicago Center
08:32PM 40.9311 -92.0142 82° East 532 612 31,100 -960 Descending Chicago Center
08:33PM 40.9506 -91.8244 82° East 525 604 30,200 -960 Descending Chicago Center
08:34PM 40.9700 -91.6353 82° East 523 602 29,200 -1,020 Descending Chicago Center
08:35PM 40.9928 -91.4200 82° East 515 593 28,100 -1,020 Descending Chicago Center
08:36PM 41.0108 -91.2339 83° East 511 588 27,100 -960 Descending Chicago Center
08:37PM 41.0289 -91.0500 83° East 504 580 26,100 -1,020 Descending Chicago Center
08:38PM 41.0461 -90.8656 83° East 504 580 25,100 -1,020 Descending Chicago Center
08:40PM 41.0628 -90.6831 83° East 501 577 24,100 -1,020 Descending Chicago Center
08:41PM 41.0836 -90.4656 83° East 497 572 23,000 -1,080 Descending Chicago Center
08:42PM 41.1000 -90.2867 83° East 490 564 21,900 -1,020 Descending Chicago Center
08:43PM 41.1147 -90.1092 84° East 484 557 20,900 -1,440 Descending Chicago Center
08:44PM 41.1306 -89.9331 83° East 481 554 19,000 -2,040 Descending Chicago Center
08:45PM 41.1458 -89.7675 83° East 457 526 16,700 -2,280 Descending Chicago Center
08:46PM 41.1586 -89.6122 84° East 431 496 14,300 -2,280 Descending Chicago Center
08:47PM 41.1697 -89.4669 84° East 405 466 12,100 -1,620 Descending Chicago Center
08:48PM 41.1797 -89.3014 85° East 388 447 11,000 -960 Descending Chicago Center
08:49PM 41.1867 -89.1739 86° East 365 420 10,100 -1,260 Descending Chicago Center
08:50PM 41.1958 -89.0553 84° East 335 386 8,400 -1,560 Descending Chicago Center
08:51PM 41.2075 -88.9472 82° East 306 352 6,900 -1,200 Descending Chicago Center
08:52PM 41.2567 -88.8631 52° Northeast 284 327 6,000 -480 Descending Chicago Center
08:53PM 41.2939 -88.7500 66° East 280 322 6,000  Level Chicago Center
08:54PM 41.3422 -88.6714 51° Northeast 273 314 6,000  Level Chicago Center
08:55PM 41.3794 -88.5819 61° Northeast 275 316 6,000  Level Chicago Center
08:56PM 41.4197 -88.4881 60° Northeast 285 328 6,000 -120 Level Chicago Center
08:57PM 41.4611 -88.3903 61° Northeast 299 344 5,800 -480 Descending Chicago Center
08:58PM 41.4772 -88.2872 78° East 285 328 5,100 -420 Descending Chicago Center
08:59PM 41.5044 -88.1678 73° East 278 320 5,000 -60 Descending Chicago Center
09:00PM 41.5442 -88.0817 58° Northeast 270 311 5,000 -60 Level Chicago Center
09:01PM 41.5558 -87.9867 81° East 262 302 4,900  Descending Chicago Center
09:02PM 41.5600 -87.9006 86° East 243 280 5,000 -180 Climbing Chicago Center
09:03PM 41.5639 -87.8150 86° East 235 270 4,600 -540 Descending Chicago Center
09:04PM 41.5678 -87.7333 86° East 229 264 3,900 -540 Descending Chicago Center
09:05PM 41.5706 -87.6633 87° East 210 242 3,500 -420 Descending Chicago Center
09:06PM 41.6106 -87.5978 51° Northeast 197 227 3,100 -300 Descending Chicago Center
09:07PM 41.6508 -87.5875 11° North 184 212 2,900 -120 Descending Chicago Center
09:08PM 41.6911 -87.6219 327° Northwest 178 205 2,900 -120 Level Chicago Center
09:09PM 41.7000 -87.6500 293° West 162 186 2,800 -720 Descending Chicago TRACON
09:10PM 41.7333 -87.6833 323° Northwest 132 152 1,900 -840 Descending Chicago TRACON
09:11PM 41.7500 -87.7167 304° West 127 146 1,300 -720 Descending Chicago TRACON